sensor_id;sensor_type;location;lat;lon;timestamp;temperature;humidity
14727;DHT22;7454;51.256;8.176;2022-08-06T00:02:02;13.60;65.30
14727;DHT22;7454;51.256;8.176;2022-08-06T00:04:28;13.50;65.30
14727;DHT22;7454;51.256;8.176;2022-08-06T00:06:54;13.50;65.40
14727;DHT22;7454;51.256;8.176;2022-08-06T00:09:19;13.50;65.30
14727;DHT22;7454;51.256;8.176;2022-08-06T00:11:45;13.50;65.30
14727;DHT22;7454;51.256;8.176;2022-08-06T00:14:11;13.40;65.30
14727;DHT22;7454;51.256;8.176;2022-08-06T00:16:37;13.40;65.30
14727;DHT22;7454;51.256;8.176;2022-08-06T00:19:03;13.40;65.30
14727;DHT22;7454;51.256;8.176;2022-08-06T00:21:29;13.40;65.10
14727;DHT22;7454;51.256;8.176;2022-08-06T00:23:55;13.40;65.20
14727;DHT22;7454;51.256;8.176;2022-08-06T00:26:21;13.30;65.20
14727;DHT22;7454;51.256;8.176;2022-08-06T00:28:47;13.40;65.30
14727;DHT22;7454;51.256;8.176;2022-08-06T00:31:12;13.30;65.20
14727;DHT22;7454;51.256;8.176;2022-08-06T00:33:39;13.30;65.30
14727;DHT22;7454;51.256;8.176;2022-08-06T00:36:07;13.30;65.40
14727;DHT22;7454;51.256;8.176;2022-08-06T00:38:33;13.20;65.20
14727;DHT22;7454;51.256;8.176;2022-08-06T00:40:59;13.10;65.30
14727;DHT22;7454;51.256;8.176;2022-08-06T00:43:26;13.10;65.30
14727;DHT22;7454;51.256;8.176;2022-08-06T00:45:52;13.00;65.10
14727;DHT22;7454;51.256;8.176;2022-08-06T00:48:18;13.10;65.30
14727;DHT22;7454;51.256;8.176;2022-08-06T00:50:44;13.00;65.30
14727;DHT22;7454;51.256;8.176;2022-08-06T00:53:10;13.00;65.30
14727;DHT22;7454;51.256;8.176;2022-08-06T00:55:35;13.00;65.30
14727;DHT22;7454;51.256;8.176;2022-08-06T00:58:03;13.00;65.30
14727;DHT22;7454;51.256;8.176;2022-08-06T01:00:29;12.90;65.20
14727;DHT22;7454;51.256;8.176;2022-08-06T01:02:55;12.90;65.40
14727;DHT22;7454;51.256;8.176;2022-08-06T01:05:21;12.80;65.20
14727;DHT22;7454;51.256;8.176;2022-08-06T01:07:46;12.90;65.30
14727;DHT22;7454;51.256;8.176;2022-08-06T01:10:12;12.80;65.30
14727;DHT22;7454;51.256;8.176;2022-08-06T01:12:38;12.90;65.20
14727;DHT22;7454;51.256;8.176;2022-08-06T01:15:05;12.80;65.30
14727;DHT22;7454;51.256;8.176;2022-08-06T01:29:46;12.60;65.30
14727;DHT22;7454;51.256;8.176;2022-08-06T01:32:22;12.60;65.10
14727;DHT22;7454;51.256;8.176;2022-08-06T01:34:59;12.60;65.40
14727;DHT22;7454;51.256;8.176;2022-08-06T01:40:21;12.50;65.30
14727;DHT22;7454;51.256;8.176;2022-08-06T01:42:49;12.50;65.20
14727;DHT22;7454;51.256;8.176;2022-08-06T01:45:19;12.40;65.00
14727;DHT22;7454;51.256;8.176;2022-08-06T01:47:50;12.40;65.20
14727;DHT22;7454;51.256;8.176;2022-08-06T01:50:20;12.40;65.20
14727;DHT22;7454;51.256;8.176;2022-08-06T01:52:49;12.40;65.30
14727;DHT22;7454;51.256;8.176;2022-08-06T01:55:18;12.30;65.10
14727;DHT22;7454;51.256;8.176;2022-08-06T01:57:51;12.30;65.20
14727;DHT22;7454;51.256;8.176;2022-08-06T02:00:19;12.30;65.20
14727;DHT22;7454;51.256;8.176;2022-08-06T02:02:46;12.30;65.20
14727;DHT22;7454;51.256;8.176;2022-08-06T02:05:13;12.20;65.20
14727;DHT22;7454;51.256;8.176;2022-08-06T02:07:43;12.20;65.20
14727;DHT22;7454;51.256;8.176;2022-08-06T02:10:12;12.20;65.20
14727;DHT22;7454;51.256;8.176;2022-08-06T02:12:40;12.10;65.30
14727;DHT22;7454;51.256;8.176;2022-08-06T02:17:43;12.20;65.20
14727;DHT22;7454;51.256;8.176;2022-08-06T02:20:16;12.20;65.20
14727;DHT22;7454;51.256;8.176;2022-08-06T02:22:44;12.20;65.30
14727;DHT22;7454;51.256;8.176;2022-08-06T02:25:13;12.10;65.10
14727;DHT22;7454;51.256;8.176;2022-08-06T02:27:46;12.10;65.20
14727;DHT22;7454;51.256;8.176;2022-08-06T02:30:14;12.10;65.30
14727;DHT22;7454;51.256;8.176;2022-08-06T02:32:40;12.10;65.20
14727;DHT22;7454;51.256;8.176;2022-08-06T02:35:07;12.10;65.20
14727;DHT22;7454;51.256;8.176;2022-08-06T02:37:45;12.10;65.20
14727;DHT22;7454;51.256;8.176;2022-08-06T02:40:32;12.00;65.10
14727;DHT22;7454;51.256;8.176;2022-08-06T02:43:33;12.00;65.30
14727;DHT22;7454;51.256;8.176;2022-08-06T02:46:35;12.10;65.30
14727;DHT22;7454;51.256;8.176;2022-08-06T02:49:19;12.10;65.30
14727;DHT22;7454;51.256;8.176;2022-08-06T02:51:53;12.10;65.30
14727;DHT22;7454;51.256;8.176;2022-08-06T02:54:24;12.00;65.10
14727;DHT22;7454;51.256;8.176;2022-08-06T02:56:59;11.90;65.10
14727;DHT22;7454;51.256;8.176;2022-08-06T02:59:31;11.90;65.20
14727;DHT22;7454;51.256;8.176;2022-08-06T03:02:01;12.00;65.20
14727;DHT22;7454;51.256;8.176;2022-08-06T03:04:30;11.80;65.20
14727;DHT22;7454;51.256;8.176;2022-08-06T03:07:02;11.80;65.20
14727;DHT22;7454;51.256;8.176;2022-08-06T03:09:31;11.80;65.10
14727;DHT22;7454;51.256;8.176;2022-08-06T03:11:58;11.80;65.20
14727;DHT22;7454;51.256;8.176;2022-08-06T03:14:25;11.70;65.10
14727;DHT22;7454;51.256;8.176;2022-08-06T03:16:52;11.70;65.20
14727;DHT22;7454;51.256;8.176;2022-08-06T03:19:20;11.70;65.30
14727;DHT22;7454;51.256;8.176;2022-08-06T03:21:49;11.70;65.10
14727;DHT22;7454;51.256;8.176;2022-08-06T03:24:16;11.60;65.20
14727;DHT22;7454;51.256;8.176;2022-08-06T03:26:44;11.60;65.30
14727;DHT22;7454;51.256;8.176;2022-08-06T03:29:11;11.60;65.10
14727;DHT22;7454;51.256;8.176;2022-08-06T03:31:37;11.50;65.10
14727;DHT22;7454;51.256;8.176;2022-08-06T03:34:04;11.50;65.10
14727;DHT22;7454;51.256;8.176;2022-08-06T03:36:31;11.50;65.20
14727;DHT22;7454;51.256;8.176;2022-08-06T03:39:06;11.50;65.10
14727;DHT22;7454;51.256;8.176;2022-08-06T03:41:35;11.40;65.10
14727;DHT22;7454;51.256;8.176;2022-08-06T03:44:02;11.40;65.10
14727;DHT22;7454;51.256;8.176;2022-08-06T03:46:44;11.40;65.20
14727;DHT22;7454;51.256;8.176;2022-08-06T03:49:21;11.40;65.20
14727;DHT22;7454;51.256;8.176;2022-08-06T03:51:53;11.40;65.20
14727;DHT22;7454;51.256;8.176;2022-08-06T03:54:25;11.30;65.10
14727;DHT22;7454;51.256;8.176;2022-08-06T03:56:56;11.30;65.10
14727;DHT22;7454;51.256;8.176;2022-08-06T03:59:27;11.30;65.10
14727;DHT22;7454;51.256;8.176;2022-08-06T04:01:53;11.20;65.10
14727;DHT22;7454;51.256;8.176;2022-08-06T04:04:22;11.20;65.10
14727;DHT22;7454;51.256;8.176;2022-08-06T04:06:49;11.20;65.00
14727;DHT22;7454;51.256;8.176;2022-08-06T04:09:16;11.20;65.00
14727;DHT22;7454;51.256;8.176;2022-08-06T04:11:44;11.20;65.00
14727;DHT22;7454;51.256;8.176;2022-08-06T04:14:12;11.20;65.10
14727;DHT22;7454;51.256;8.176;2022-08-06T04:16:39;11.30;65.20
14727;DHT22;7454;51.256;8.176;2022-08-06T04:19:06;11.20;65.20
14727;DHT22;7454;51.256;8.176;2022-08-06T04:21:33;11.20;65.10
14727;DHT22;7454;51.256;8.176;2022-08-06T04:23:59;11.20;65.00
14727;DHT22;7454;51.256;8.176;2022-08-06T04:26:25;11.10;65.10
14727;DHT22;7454;51.256;8.176;2022-08-06T04:28:55;11.10;65.10
14727;DHT22;7454;51.256;8.176;2022-08-06T04:31:22;11.00;65.20
14727;DHT22;7454;51.256;8.176;2022-08-06T04:33:51;11.10;65.10
14727;DHT22;7454;51.256;8.176;2022-08-06T04:36:18;11.10;65.10
14727;DHT22;7454;51.256;8.176;2022-08-06T04:38:45;11.10;65.10
14727;DHT22;7454;51.256;8.176;2022-08-06T04:41:12;11.10;65.00
14727;DHT22;7454;51.256;8.176;2022-08-06T04:43:39;11.00;65.00
14727;DHT22;7454;51.256;8.176;2022-08-06T04:46:06;11.00;65.10
14727;DHT22;7454;51.256;8.176;2022-08-06T04:48:33;11.00;65.10
14727;DHT22;7454;51.256;8.176;2022-08-06T04:51:04;11.00;65.10
14727;DHT22;7454;51.256;8.176;2022-08-06T04:53:38;11.10;65.30
14727;DHT22;7454;51.256;8.176;2022-08-06T04:56:06;11.10;65.20
14727;DHT22;7454;51.256;8.176;2022-08-06T04:58:33;11.20;65.20
14727;DHT22;7454;51.256;8.176;2022-08-06T05:01:00;11.20;65.30
14727;DHT22;7454;51.256;8.176;2022-08-06T05:03:27;11.10;65.20
14727;DHT22;7454;51.256;8.176;2022-08-06T05:06:29;11.20;65.20
14727;DHT22;7454;51.256;8.176;2022-08-06T05:09:03;11.20;65.20
14727;DHT22;7454;51.256;8.176;2022-08-06T05:11:39;11.20;65.20
14727;DHT22;7454;51.256;8.176;2022-08-06T05:14:19;11.40;65.30
14727;DHT22;7454;51.256;8.176;2022-08-06T05:16:49;11.20;65.20
14727;DHT22;7454;51.256;8.176;2022-08-06T05:19:19;11.20;65.10
14727;DHT22;7454;51.256;8.176;2022-08-06T05:21:51;11.20;65.30
14727;DHT22;7454;51.256;8.176;2022-08-06T05:24:18;11.30;65.40
14727;DHT22;7454;51.256;8.176;2022-08-06T05:26:44;11.40;65.40
14727;DHT22;7454;51.256;8.176;2022-08-06T05:29:10;11.30;65.20
14727;DHT22;7454;51.256;8.176;2022-08-06T05:31:37;11.30;65.30
14727;DHT22;7454;51.256;8.176;2022-08-06T05:34:09;11.40;65.40
14727;DHT22;7454;51.256;8.176;2022-08-06T05:36:37;11.40;65.40
14727;DHT22;7454;51.256;8.176;2022-08-06T05:39:04;11.50;65.40
14727;DHT22;7454;51.256;8.176;2022-08-06T05:41:30;11.50;65.40
14727;DHT22;7454;51.256;8.176;2022-08-06T05:43:57;11.50;65.40
14727;DHT22;7454;51.256;8.176;2022-08-06T05:46:24;11.60;65.40
14727;DHT22;7454;51.256;8.176;2022-08-06T05:51:40;11.70;65.60
14727;DHT22;7454;51.256;8.176;2022-08-06T05:57:02;11.70;65.70
14727;DHT22;7454;51.256;8.176;2022-08-06T05:59:39;11.70;65.70
14727;DHT22;7454;51.256;8.176;2022-08-06T06:02:11;11.80;65.80
14727;DHT22;7454;51.256;8.176;2022-08-06T06:04:38;11.80;65.70
14727;DHT22;7454;51.256;8.176;2022-08-06T06:07:04;11.80;65.80
14727;DHT22;7454;51.256;8.176;2022-08-06T06:09:31;11.90;65.90
14727;DHT22;7454;51.256;8.176;2022-08-06T06:11:58;12.00;65.70
14727;DHT22;7454;51.256;8.176;2022-08-06T06:14:37;12.10;65.90
14727;DHT22;7454;51.256;8.176;2022-08-06T06:20:16;12.10;66.10
14727;DHT22;7454;51.256;8.176;2022-08-06T06:23:00;12.20;66.10
14727;DHT22;7454;51.256;8.176;2022-08-06T06:25:37;12.30;66.20
14727;DHT22;7454;51.256;8.176;2022-08-06T06:37:01;12.60;66.50
14727;DHT22;7454;51.256;8.176;2022-08-06T06:42:29;12.80;66.40
14727;DHT22;7454;51.256;8.176;2022-08-06T06:45:11;12.90;66.60
14727;DHT22;7454;51.256;8.176;2022-08-06T06:47:55;13.00;66.50
14727;DHT22;7454;51.256;8.176;2022-08-06T06:50:32;13.10;66.30
14727;DHT22;7454;51.256;8.176;2022-08-06T06:52:59;13.30;66.40
14727;DHT22;7454;51.256;8.176;2022-08-06T06:55:32;13.30;66.20
14727;DHT22;7454;51.256;8.176;2022-08-06T06:58:25;13.40;66.10
14727;DHT22;7454;51.256;8.176;2022-08-06T07:00:55;13.50;66.10
14727;DHT22;7454;51.256;8.176;2022-08-06T07:03:23;13.60;66.10
14727;DHT22;7454;51.256;8.176;2022-08-06T07:05:50;13.70;66.00
14727;DHT22;7454;51.256;8.176;2022-08-06T07:08:20;13.80;65.90
14727;DHT22;7454;51.256;8.176;2022-08-06T07:10:48;13.90;65.80
14727;DHT22;7454;51.256;8.176;2022-08-06T07:13:16;14.10;65.80
14727;DHT22;7454;51.256;8.176;2022-08-06T07:15:44;14.30;65.90
14727;DHT22;7454;51.256;8.176;2022-08-06T07:18:11;14.30;65.50
14727;DHT22;7454;51.256;8.176;2022-08-06T07:20:39;14.50;65.80
14727;DHT22;7454;51.256;8.176;2022-08-06T07:23:07;14.60;65.80
14727;DHT22;7454;51.256;8.176;2022-08-06T07:25:37;14.80;66.00
14727;DHT22;7454;51.256;8.176;2022-08-06T07:28:08;15.00;65.70
14727;DHT22;7454;51.256;8.176;2022-08-06T07:30:35;15.10;65.20
14727;DHT22;7454;51.256;8.176;2022-08-06T07:33:03;15.30;65.10
14727;DHT22;7454;51.256;8.176;2022-08-06T07:35:30;15.40;65.20
14727;DHT22;7454;51.256;8.176;2022-08-06T07:38:00;15.50;65.20
14727;DHT22;7454;51.256;8.176;2022-08-06T07:40:35;15.60;65.10
14727;DHT22;7454;51.256;8.176;2022-08-06T07:43:07;15.70;65.30
14727;DHT22;7454;51.256;8.176;2022-08-06T07:45:37;15.80;64.80
14727;DHT22;7454;51.256;8.176;2022-08-06T07:48:09;15.70;64.90
14727;DHT22;7454;51.256;8.176;2022-08-06T07:50:36;15.80;64.80
14727;DHT22;7454;51.256;8.176;2022-08-06T07:53:05;15.80;65.00
14727;DHT22;7454;51.256;8.176;2022-08-06T07:55:32;15.80;65.00
14727;DHT22;7454;51.256;8.176;2022-08-06T07:58:00;15.80;64.80
14727;DHT22;7454;51.256;8.176;2022-08-06T08:00:26;15.80;64.80
14727;DHT22;7454;51.256;8.176;2022-08-06T08:02:53;15.80;64.80
14727;DHT22;7454;51.256;8.176;2022-08-06T08:05:38;15.80;64.90
14727;DHT22;7454;51.256;8.176;2022-08-06T08:08:24;16.00;65.00
14727;DHT22;7454;51.256;8.176;2022-08-06T08:10:52;16.10;64.80
14727;DHT22;7454;51.256;8.176;2022-08-06T08:13:18;16.10;64.50
14727;DHT22;7454;51.256;8.176;2022-08-06T08:15:47;16.10;64.10
14727;DHT22;7454;51.256;8.176;2022-08-06T08:18:13;16.10;64.20
14727;DHT22;7454;51.256;8.176;2022-08-06T08:20:42;16.10;64.40
14727;DHT22;7454;51.256;8.176;2022-08-06T08:23:11;16.10;64.40
14727;DHT22;7454;51.256;8.176;2022-08-06T08:25:39;16.00;64.40
14727;DHT22;7454;51.256;8.176;2022-08-06T08:28:06;16.00;64.30
14727;DHT22;7454;51.256;8.176;2022-08-06T08:30:33;16.00;64.30
14727;DHT22;7454;51.256;8.176;2022-08-06T08:32:59;16.00;64.50
14727;DHT22;7454;51.256;8.176;2022-08-06T08:35:24;16.00;64.40
14727;DHT22;7454;51.256;8.176;2022-08-06T08:37:50;16.00;64.10
14727;DHT22;7454;51.256;8.176;2022-08-06T08:40:16;16.00;64.10
14727;DHT22;7454;51.256;8.176;2022-08-06T08:42:49;16.10;64.30
14727;DHT22;7454;51.256;8.176;2022-08-06T08:45:20;16.10;64.20
14727;DHT22;7454;51.256;8.176;2022-08-06T08:47:50;16.10;64.20
14727;DHT22;7454;51.256;8.176;2022-08-06T08:50:19;16.10;64.10
14727;DHT22;7454;51.256;8.176;2022-08-06T08:52:52;16.20;64.00
14727;DHT22;7454;51.256;8.176;2022-08-06T08:55:27;16.20;64.20
14727;DHT22;7454;51.256;8.176;2022-08-06T08:57:54;16.20;63.90
14727;DHT22;7454;51.256;8.176;2022-08-06T09:00:21;16.20;63.90
14727;DHT22;7454;51.256;8.176;2022-08-06T09:02:48;16.30;63.80
14727;DHT22;7454;51.256;8.176;2022-08-06T09:05:15;16.30;63.90
14727;DHT22;7454;51.256;8.176;2022-08-06T09:07:44;16.30;63.70
14727;DHT22;7454;51.256;8.176;2022-08-06T09:10:11;16.40;63.70
14727;DHT22;7454;51.256;8.176;2022-08-06T09:12:37;16.50;63.60
14727;DHT22;7454;51.256;8.176;2022-08-06T09:15:03;16.50;63.40
14727;DHT22;7454;51.256;8.176;2022-08-06T09:17:30;16.60;63.20
14727;DHT22;7454;51.256;8.176;2022-08-06T09:19:56;16.70;63.40
14727;DHT22;7454;51.256;8.176;2022-08-06T09:22:22;16.60;63.20
14727;DHT22;7454;51.256;8.176;2022-08-06T09:24:48;16.70;63.10
14727;DHT22;7454;51.256;8.176;2022-08-06T09:27:16;16.60;62.70
14727;DHT22;7454;51.256;8.176;2022-08-06T09:29:56;16.60;63.10
14727;DHT22;7454;51.256;8.176;2022-08-06T09:32:44;16.60;63.20
14727;DHT22;7454;51.256;8.176;2022-08-06T09:35:19;16.60;63.00
14727;DHT22;7454;51.256;8.176;2022-08-06T09:37:48;16.60;63.10
14727;DHT22;7454;51.256;8.176;2022-08-06T09:40:17;16.50;62.80
14727;DHT22;7454;51.256;8.176;2022-08-06T09:42:46;16.50;62.70
14727;DHT22;7454;51.256;8.176;2022-08-06T09:45:15;16.50;62.90
14727;DHT22;7454;51.256;8.176;2022-08-06T09:47:42;16.70;62.90
14727;DHT22;7454;51.256;8.176;2022-08-06T09:50:08;16.70;63.20
14727;DHT22;7454;51.256;8.176;2022-08-06T09:52:35;16.80;62.60
14727;DHT22;7454;51.256;8.176;2022-08-06T09:55:01;16.90;62.80
14727;DHT22;7454;51.256;8.176;2022-08-06T09:57:44;17.00;62.30
14727;DHT22;7454;51.256;8.176;2022-08-06T10:00:23;17.10;61.90
14727;DHT22;7454;51.256;8.176;2022-08-06T10:02:59;17.10;62.30
14727;DHT22;7454;51.256;8.176;2022-08-06T10:05:27;17.10;62.40
14727;DHT22;7454;51.256;8.176;2022-08-06T10:08:08;17.10;62.40
14727;DHT22;7454;51.256;8.176;2022-08-06T10:13:35;17.10;62.40
14727;DHT22;7454;51.256;8.176;2022-08-06T10:16:15;17.10;62.30
14727;DHT22;7454;51.256;8.176;2022-08-06T10:18:44;17.10;62.20
14727;DHT22;7454;51.256;8.176;2022-08-06T10:21:20;17.10;62.20
14727;DHT22;7454;51.256;8.176;2022-08-06T10:23:52;17.20;62.50
14727;DHT22;7454;51.256;8.176;2022-08-06T10:26:26;17.30;62.50
14727;DHT22;7454;51.256;8.176;2022-08-06T10:28:54;17.30;62.40
14727;DHT22;7454;51.256;8.176;2022-08-06T10:31:21;17.30;62.20
14727;DHT22;7454;51.256;8.176;2022-08-06T10:33:57;17.30;62.20
14727;DHT22;7454;51.256;8.176;2022-08-06T10:36:35;17.40;62.30
14727;DHT22;7454;51.256;8.176;2022-08-06T10:39:03;17.50;62.30
14727;DHT22;7454;51.256;8.176;2022-08-06T10:41:30;17.50;62.00
14727;DHT22;7454;51.256;8.176;2022-08-06T10:43:57;17.60;61.70
14727;DHT22;7454;51.256;8.176;2022-08-06T10:46:23;17.60;61.50
14727;DHT22;7454;51.256;8.176;2022-08-06T10:48:49;17.70;61.50
14727;DHT22;7454;51.256;8.176;2022-08-06T10:51:15;17.70;62.00
14727;DHT22;7454;51.256;8.176;2022-08-06T10:53:44;17.70;61.80
14727;DHT22;7454;51.256;8.176;2022-08-06T10:56:13;17.80;62.00
14727;DHT22;7454;51.256;8.176;2022-08-06T10:58:41;17.70;61.90
14727;DHT22;7454;51.256;8.176;2022-08-06T11:04:06;17.70;61.70
14727;DHT22;7454;51.256;8.176;2022-08-06T11:06:56;17.70;62.10
14727;DHT22;7454;51.256;8.176;2022-08-06T11:15:11;17.90;61.30
14727;DHT22;7454;51.256;8.176;2022-08-06T11:17:49;18.00;61.30
14727;DHT22;7454;51.256;8.176;2022-08-06T11:23:01;18.20;61.20
14727;DHT22;7454;51.256;8.176;2022-08-06T11:25:49;18.30;61.40
14727;DHT22;7454;51.256;8.176;2022-08-06T11:31:01;18.20;61.10
14727;DHT22;7454;51.256;8.176;2022-08-06T11:36:08;18.20;60.40
14727;DHT22;7454;51.256;8.176;2022-08-06T11:41:21;18.30;60.80
14727;DHT22;7454;51.256;8.176;2022-08-06T11:46:35;18.30;61.00
14727;DHT22;7454;51.256;8.176;2022-08-06T11:59:38;18.30;60.60
14727;DHT22;7454;51.256;8.176;2022-08-06T12:02:11;18.30;60.40
14727;DHT22;7454;51.256;8.176;2022-08-06T12:04:43;18.30;60.60
14727;DHT22;7454;51.256;8.176;2022-08-06T12:07:30;18.30;60.40
14727;DHT22;7454;51.256;8.176;2022-08-06T12:10:08;18.40;60.50
14727;DHT22;7454;51.256;8.176;2022-08-06T12:12:48;18.40;60.80
14727;DHT22;7454;51.256;8.176;2022-08-06T12:20:32;18.40;60.90
14727;DHT22;7454;51.256;8.176;2022-08-06T12:23:11;18.40;60.90
14727;DHT22;7454;51.256;8.176;2022-08-06T12:25:41;18.50;61.40
14727;DHT22;7454;51.256;8.176;2022-08-06T12:28:10;18.50;60.80
14727;DHT22;7454;51.256;8.176;2022-08-06T12:30:44;18.60;60.80
14727;DHT22;7454;51.256;8.176;2022-08-06T12:33:11;18.70;60.70
14727;DHT22;7454;51.256;8.176;2022-08-06T12:35:51;18.70;60.60
14727;DHT22;7454;51.256;8.176;2022-08-06T12:38:25;18.70;60.30
14727;DHT22;7454;51.256;8.176;2022-08-06T12:40:53;18.80;60.20
14727;DHT22;7454;51.256;8.176;2022-08-06T12:43:20;18.90;60.30
14727;DHT22;7454;51.256;8.176;2022-08-06T12:45:46;18.90;60.10
14727;DHT22;7454;51.256;8.176;2022-08-06T12:48:12;19.00;60.20
14727;DHT22;7454;51.256;8.176;2022-08-06T12:50:42;19.00;60.30
14727;DHT22;7454;51.256;8.176;2022-08-06T12:53:16;19.00;60.50
14727;DHT22;7454;51.256;8.176;2022-08-06T12:55:51;18.90;60.70
14727;DHT22;7454;51.256;8.176;2022-08-06T12:58:19;18.80;60.90
14727;DHT22;7454;51.256;8.176;2022-08-06T13:00:52;18.70;60.60
14727;DHT22;7454;51.256;8.176;2022-08-06T13:03:22;18.70;60.70
14727;DHT22;7454;51.256;8.176;2022-08-06T13:05:50;18.50;60.50
14727;DHT22;7454;51.256;8.176;2022-08-06T13:08:19;18.50;60.50
14727;DHT22;7454;51.256;8.176;2022-08-06T13:10:50;18.50;60.00
14727;DHT22;7454;51.256;8.176;2022-08-06T13:13:18;18.50;60.00
14727;DHT22;7454;51.256;8.176;2022-08-06T13:16:03;18.60;60.10
14727;DHT22;7454;51.256;8.176;2022-08-06T13:18:30;18.60;59.50
14727;DHT22;7454;51.256;8.176;2022-08-06T13:20:56;18.70;60.00
14727;DHT22;7454;51.256;8.176;2022-08-06T13:23:34;18.80;60.20
14727;DHT22;7454;51.256;8.176;2022-08-06T13:26:23;19.00;60.20
14727;DHT22;7454;51.256;8.176;2022-08-06T13:29:04;19.00;60.20
14727;DHT22;7454;51.256;8.176;2022-08-06T13:31:38;19.00;60.20
14727;DHT22;7454;51.256;8.176;2022-08-06T13:34:08;18.90;59.40
14727;DHT22;7454;51.256;8.176;2022-08-06T13:36:37;18.80;60.20
14727;DHT22;7454;51.256;8.176;2022-08-06T13:39:27;18.80;60.30
14727;DHT22;7454;51.256;8.176;2022-08-06T13:42:09;18.70;60.20
14727;DHT22;7454;51.256;8.176;2022-08-06T13:44:41;18.70;60.00
14727;DHT22;7454;51.256;8.176;2022-08-06T13:47:10;18.80;60.20
14727;DHT22;7454;51.256;8.176;2022-08-06T13:49:43;18.80;60.00
14727;DHT22;7454;51.256;8.176;2022-08-06T13:52:09;18.90;60.10
14727;DHT22;7454;51.256;8.176;2022-08-06T13:54:35;18.90;58.20
14727;DHT22;7454;51.256;8.176;2022-08-06T13:57:02;19.00;59.00
14727;DHT22;7454;51.256;8.176;2022-08-06T13:59:29;19.10;60.00
14727;DHT22;7454;51.256;8.176;2022-08-06T14:01:59;19.10;57.50
14727;DHT22;7454;51.256;8.176;2022-08-06T14:04:27;19.00;59.30
14727;DHT22;7454;51.256;8.176;2022-08-06T14:06:56;18.90;58.70
14727;DHT22;7454;51.256;8.176;2022-08-06T14:09:25;18.80;58.50
14727;DHT22;7454;51.256;8.176;2022-08-06T14:11:57;18.70;58.40
14727;DHT22;7454;51.256;8.176;2022-08-06T14:14:28;18.60;58.30
14727;DHT22;7454;51.256;8.176;2022-08-06T14:16:57;18.70;58.80
14727;DHT22;7454;51.256;8.176;2022-08-06T14:19:24;18.70;56.90
14727;DHT22;7454;51.256;8.176;2022-08-06T14:21:51;18.80;58.30
14727;DHT22;7454;51.256;8.176;2022-08-06T14:24:17;18.80;58.40
14727;DHT22;7454;51.256;8.176;2022-08-06T14:26:43;18.90;56.40
14727;DHT22;7454;51.256;8.176;2022-08-06T14:29:09;18.90;57.40
14727;DHT22;7454;51.256;8.176;2022-08-06T14:31:35;19.00;55.30
14727;DHT22;7454;51.256;8.176;2022-08-06T14:34:01;19.10;57.10
14727;DHT22;7454;51.256;8.176;2022-08-06T14:36:28;19.10;56.90
14727;DHT22;7454;51.256;8.176;2022-08-06T14:38:55;19.10;57.00
14727;DHT22;7454;51.256;8.176;2022-08-06T14:41:22;19.20;58.10
14727;DHT22;7454;51.256;8.176;2022-08-06T14:44:08;19.10;54.90
14727;DHT22;7454;51.256;8.176;2022-08-06T14:46:53;19.10;55.70
14727;DHT22;7454;51.256;8.176;2022-08-06T14:49:20;19.00;56.00
14727;DHT22;7454;51.256;8.176;2022-08-06T14:51:46;19.10;57.10
14727;DHT22;7454;51.256;8.176;2022-08-06T14:54:12;19.10;56.40
14727;DHT22;7454;51.256;8.176;2022-08-06T14:56:38;19.00;56.30
14727;DHT22;7454;51.256;8.176;2022-08-06T14:59:04;19.00;56.20
14727;DHT22;7454;51.256;8.176;2022-08-06T15:01:30;19.10;58.00
14727;DHT22;7454;51.256;8.176;2022-08-06T15:03:57;19.20;56.10
14727;DHT22;7454;51.256;8.176;2022-08-06T15:06:22;19.30;55.90
14727;DHT22;7454;51.256;8.176;2022-08-06T15:08:48;19.40;56.70
14727;DHT22;7454;51.256;8.176;2022-08-06T15:11:15;19.50;57.20
14727;DHT22;7454;51.256;8.176;2022-08-06T15:13:40;19.60;56.40
14727;DHT22;7454;51.256;8.176;2022-08-06T15:16:06;19.60;56.60
14727;DHT22;7454;51.256;8.176;2022-08-06T15:18:33;19.70;56.80
14727;DHT22;7454;51.256;8.176;2022-08-06T15:20:58;19.80;57.10
14727;DHT22;7454;51.256;8.176;2022-08-06T15:23:25;19.80;56.00
14727;DHT22;7454;51.256;8.176;2022-08-06T15:25:51;19.80;57.80
14727;DHT22;7454;51.256;8.176;2022-08-06T15:28:17;19.60;56.70
14727;DHT22;7454;51.256;8.176;2022-08-06T15:30:43;19.50;56.30
14727;DHT22;7454;51.256;8.176;2022-08-06T15:33:09;19.40;56.40
14727;DHT22;7454;51.256;8.176;2022-08-06T15:35:35;19.30;56.80
14727;DHT22;7454;51.256;8.176;2022-08-06T15:38:01;19.30;54.10
14727;DHT22;7454;51.256;8.176;2022-08-06T15:40:26;19.30;53.30
14727;DHT22;7454;51.256;8.176;2022-08-06T15:42:52;19.20;53.90
14727;DHT22;7454;51.256;8.176;2022-08-06T15:45:20;19.20;54.10
14727;DHT22;7454;51.256;8.176;2022-08-06T15:47:46;19.20;53.40
14727;DHT22;7454;51.256;8.176;2022-08-06T15:50:11;19.10;53.60
14727;DHT22;7454;51.256;8.176;2022-08-06T15:52:37;19.20;52.20
14727;DHT22;7454;51.256;8.176;2022-08-06T15:55:04;19.30;55.10
14727;DHT22;7454;51.256;8.176;2022-08-06T15:57:30;19.30;54.30
14727;DHT22;7454;51.256;8.176;2022-08-06T15:59:56;19.30;54.50
14727;DHT22;7454;51.256;8.176;2022-08-06T16:02:22;19.30;53.90
14727;DHT22;7454;51.256;8.176;2022-08-06T16:04:48;19.30;55.30
14727;DHT22;7454;51.256;8.176;2022-08-06T16:07:14;19.30;55.60
14727;DHT22;7454;51.256;8.176;2022-08-06T16:09:40;19.30;55.30
14727;DHT22;7454;51.256;8.176;2022-08-06T16:12:08;19.20;55.10
14727;DHT22;7454;51.256;8.176;2022-08-06T16:14:35;19.20;55.20
14727;DHT22;7454;51.256;8.176;2022-08-06T16:17:01;19.10;55.20
14727;DHT22;7454;51.256;8.176;2022-08-06T16:19:27;18.90;56.50
14727;DHT22;7454;51.256;8.176;2022-08-06T16:21:53;18.90;56.40
14727;DHT22;7454;51.256;8.176;2022-08-06T16:24:19;18.90;56.40
14727;DHT22;7454;51.256;8.176;2022-08-06T16:26:45;18.90;55.70
14727;DHT22;7454;51.256;8.176;2022-08-06T16:29:11;19.00;55.60
14727;DHT22;7454;51.256;8.176;2022-08-06T16:31:38;18.80;56.30
14727;DHT22;7454;51.256;8.176;2022-08-06T16:34:04;18.90;56.20
14727;DHT22;7454;51.256;8.176;2022-08-06T16:36:30;18.90;55.60
14727;DHT22;7454;51.256;8.176;2022-08-06T16:38:56;19.00;55.00
14727;DHT22;7454;51.256;8.176;2022-08-06T16:41:22;19.00;55.70
14727;DHT22;7454;51.256;8.176;2022-08-06T16:43:48;19.00;54.60
14727;DHT22;7454;51.256;8.176;2022-08-06T16:46:16;19.10;54.50
14727;DHT22;7454;51.256;8.176;2022-08-06T16:48:42;19.20;54.80
14727;DHT22;7454;51.256;8.176;2022-08-06T16:51:08;19.20;54.50
14727;DHT22;7454;51.256;8.176;2022-08-06T16:53:40;19.30;54.20
14727;DHT22;7454;51.256;8.176;2022-08-06T16:56:08;19.10;54.00
14727;DHT22;7454;51.256;8.176;2022-08-06T16:58:34;19.20;54.20
14727;DHT22;7454;51.256;8.176;2022-08-06T17:01:00;19.20;54.40
14727;DHT22;7454;51.256;8.176;2022-08-06T17:03:26;19.30;54.70
14727;DHT22;7454;51.256;8.176;2022-08-06T17:05:51;19.20;55.50
14727;DHT22;7454;51.256;8.176;2022-08-06T17:08:17;19.20;54.90
14727;DHT22;7454;51.256;8.176;2022-08-06T17:10:43;19.10;54.70
14727;DHT22;7454;51.256;8.176;2022-08-06T17:13:09;19.10;55.30
14727;DHT22;7454;51.256;8.176;2022-08-06T17:15:35;19.00;55.70
14727;DHT22;7454;51.256;8.176;2022-08-06T17:18:01;19.00;56.10
14727;DHT22;7454;51.256;8.176;2022-08-06T17:20:27;19.00;55.40